AirNav   Pilot Hours Calculator
 
 920 users online  

T24 Pineland Municipal Airport
Pineland, Texas, USA

GOING TO PINELAND?


FAA INFORMATION EFFECTIVE 02 JANUARY 2020

Location

FAA Identifier: T24
Lat/Long: 31-14-00.6790N 093-58-54.6800W
31-14.011317N 093-58.911333W
31.2335219,-93.9818556
(estimated)
Elevation: 260 ft. / 79 m (estimated)
Variation: 05E (1985)
From city: 1 mile SW of PINELAND, TX
Time zone: UTC -6 (UTC -5 during Daylight Saving Time)
Zip code: 75968

Airport Operations

Airport use: Open to the public
Activation date: 03/1961
Control tower: no
ARTCC: HOUSTON CENTER
FSS: MONTGOMERY COUNTY FLIGHT SERVICE STATION
NOTAMs facility: CXO (NOTAM-D service available)
Attendance: UNATNDD
Wind indicator: lighted
Segmented circle: yes
Lights: ACTVT MIRL RY 17/35 - CTAF.
Beacon: white-green (lighted land airport)
Operates sunset to sunrise.

Airport Communications

CTAF/UNICOM: 122.8

Nearby radio navigation aids

VOR radial/distance  VOR name  Freq  Var
LFKr079/38.0LUFKIN VORTAC112.1005E
FXUr279/(39.8)POLK VOR108.4002E

 
NDB name  Hdg/Dist  Freq  Var  ID
AMASON162/37.034104ECZJ -.-. --.. .---

Airport Services

Airframe service: NONE
Powerplant service: NONE
Bottled oxygen: NONE
Bulk oxygen: NONE

Runway Information

Runway 17/35

Dimensions: 3700 x 75 ft. / 1128 x 23 m
Surface: asphalt, in poor condition
EXTSV PAVEMENT CRACKING WITH VEGETATION GROWING THRU. LOOSE AGGREGATE ON RWY.
Weight bearing capacity: 
Single wheel: 14.0
Runway edge lights: medium intensity
Runway edge markings: NO MARKINGS.
RUNWAY 17  RUNWAY 35
Traffic pattern: leftleft
Markings: basicbasic
Obstructions: 67 ft. trees, 1540 ft. from runway, 20:1 slope to clear60 ft. trees, 1300 ft. from runway, 18:1 slope to clear

Airport Ownership and Management from official FAA records

Ownership: Publicly-owned
Owner: CITY OF PINELAND
PO BOX 6
PINELAND, TX 75968
Phone 409-584-2390
Manager: CHARLES CORLEY
PO BOX 6
PINELAND, TX 75968
Phone 409-584-2390

Airport Operational Statistics

Aircraft based on the field: 7
Single engine airplanes: 7
    
Aircraft operations: avg 50/month *
67% local general aviation
33% transient general aviation
* for 12-month period ending 25 March 2019

Additional Remarks

FOR CD CTC HOUSTON ARTCC AT 281-230-5622.

Instrument Procedures

There are no published instrument procedures at T24.

Some nearby airports with instrument procedures:

KJAS - Jasper County Airport-Bell Field (21 nm S)
3R4 - Hart Airport (32 nm NE)
L39 - Leesville Airport (33 nm E)
F17 - Center Municipal Airport (37 nm N)
KLFK - Angelina County Airport (39 nm W)
 
Loc | Ops | Rwys | IFR | FBO | Links
Com | Nav | Svcs | Stats | Notes
Area around T24 (Pineland Municipal Airport)
 
Road maps at: MapQuest Bing Google
 
Aerial photo
WARNING: Photo may not be current or correct
Aerial photo of T24 (Pineland Municipal Airport)
Do you have a better or more recent aerial photo of Pineland Municipal Airport that you would like to share? If so, please send us your photo.

 
Sectional chart

 
Airport distance calculator
Flying to Pineland Municipal Airport? Find the distance to fly.

From to T24

Sunrise and sunset
Times for 18-Jan-2020
 Local
(UTC-6)
 Zulu
(UTC)
Morning civil twilight06:5012:50
Sunrise07:1613:16
Sunset17:3723:37
Evening civil twilight18:0300:03

Current date and time
Zulu (UTC)  19-Jan-2020 02:58:40
Local (UTC-6)  18-Jan-2020 20:58:40
 
METAR
KJAS 
21nm S 
190235Z AUTO 34004KT 10SM BKN080 16/13 A3029 RMK AO2 T01600127
KF17 
37nm N 
190235Z AUTO 35009G17KT 10SM CLR 13/05 A3032 RMK AO2 T01250051
KAQV 
38nm NE 
190157Z AUTO VRB04KT 10SM CLR 15/12 A3022 RMK AO2 SLP232 T01500117
KLFK 
39nm W 
190253Z AUTO 34008KT 10SM CLR 13/06 A3030 RMK AO2 SLP259 T01280061 51031 $
KDRI 
41nm SE 
190235Z AUTO 00000KT 7SM BKN070 BKN085 15/13 A3026 RMK AO2 T01540129
TAF
KLFK 
39nm W 
181728Z 1818/1918 23006KT P6SM BKN029 OVC040 FM181900 32009G15KT P6SM OVC030 FM182100 34010G18KT P6SM SKC FM190300 35010KT P6SM SKC FM191400 03009G15KT P6SM SKC
NOTAMs
Click for the latest NOTAMs
NOTAMs are issued by the DoD/FAA and will open in a separate window not controlled by AirNav.

 

 
 

Would you like to see your business listed on this page?

 If your business provides an interesting product or service to pilots, flight crews, aircraft, or users of the Pineland Municipal Airport, you should consider listing it here.  To start the listing process, click on the button below
 
Add a business
 

Other Pages about Pineland Municipal Airport

Update a link
 
Copyright © AirNav, LLC. All rights reserved. Privacy Policy  Contact